createdAt,value
2019-05-15T00:00:14.440Z,66.48
2019-05-15T00:01:28.373Z,66.39
2019-05-15T00:02:38.899Z,66.29
2019-05-15T00:03:51.751Z,66.58
2019-05-15T00:05:03.762Z,66.39
2019-05-15T00:06:14.294Z,66.48
2019-05-15T00:07:28.939Z,66.48
2019-05-15T00:08:41.890Z,66.67
2019-05-15T00:09:53.081Z,66.67
2019-05-15T00:11:03.850Z,66.86
2019-05-15T00:12:15.576Z,66.96
2019-05-15T00:13:28.205Z,66.96
2019-05-15T00:14:38.808Z,67.43
2019-05-15T00:15:50.995Z,67.68
2019-05-15T00:17:01.925Z,68.15
2019-05-15T00:18:13.505Z,68.15
2019-05-15T00:19:25.762Z,67.96
2019-05-15T00:20:36.118Z,67.77
2019-05-15T00:21:48.965Z,68.06
2019-05-15T00:23:01.356Z,68.35
2019-05-15T00:24:17.774Z,67.87
2019-05-15T00:25:28.239Z,68.25
2019-05-15T00:26:40.970Z,68.25
2019-05-15T00:27:53.232Z,68.44
2019-05-15T00:29:19.642Z,68.73
2019-05-15T00:30:31.862Z,68.63
2019-05-15T00:31:44.058Z,68.54
2019-05-15T00:32:56.230Z,68.54
2019-05-15T00:34:12.433Z,68.73
2019-05-15T00:35:23.570Z,68.91
2019-05-15T00:36:38.240Z,69.2
2019-05-15T00:37:49.207Z,68.73
2019-05-15T00:39:01.564Z,68.91
2019-05-15T00:40:13.812Z,69.1
2019-05-15T00:41:27.565Z,69.1
2019-05-15T00:42:53.610Z,69.48
2019-05-15T00:44:05.512Z,69.48
2019-05-15T00:45:18.471Z,69.48
2019-05-15T00:46:31.507Z,69.48
2019-05-15T00:47:43.386Z,69.48
2019-05-15T00:48:54.071Z,69.1
2019-05-15T00:50:08.798Z,69.38
2019-05-15T00:51:22.032Z,69.38
2019-05-15T00:52:33.798Z,69.86
2019-05-15T00:53:43.758Z,70.05
2019-05-15T00:54:55.598Z,69.67
2019-05-15T00:56:08.649Z,70.15
2019-05-15T00:57:19.179Z,69.67
2019-05-15T00:58:31.250Z,70.34
2019-05-15T00:59:43.138Z,69.86
2019-05-15T01:00:53.642Z,70.15
2019-05-15T01:02:04.439Z,69.77
2019-05-15T01:03:18.043Z,70.34
2019-05-15T01:04:30.433Z,70.15
2019-05-15T01:05:41.795Z,70.05
2019-05-15T01:06:55.188Z,70.05
2019-05-15T01:08:08.178Z,70.81
2019-05-15T01:09:18.731Z,70.9
2019-05-15T01:10:31.071Z,70.81
2019-05-15T01:11:43.736Z,71.19
2019-05-15T01:12:54.134Z,71.66
2019-05-15T01:14:06.055Z,71.66
2019-05-15T01:15:21.469Z,71.47
2019-05-15T01:16:31.939Z,71.95
2019-05-15T01:17:43.586Z,72.23
2019-05-15T01:18:54.484Z,72.04
2019-05-15T01:20:08.374Z,72.04
2019-05-15T01:21:21.116Z,72.42
2019-05-15T01:22:33.058Z,72.23
2019-05-15T01:23:44.405Z,72.04
2019-05-15T01:24:55.824Z,72.52
2019-05-15T01:26:08.271Z,72.52
2019-05-15T01:27:20.804Z,72.99
2019-05-15T01:28:31.836Z,72.77
2019-05-15T01:29:49.288Z,73.05
2019-05-15T01:31:01.731Z,73.05
2019-05-15T01:32:13.908Z,72.86
2019-05-15T01:33:24.423Z,73.61
2019-05-15T01:34:38.267Z,73.52
2019-05-15T01:35:48.840Z,73.61
2019-05-15T01:36:59.151Z,73.99
2019-05-15T01:38:11.139Z,74.09
2019-05-15T01:39:21.628Z,73.99
2019-05-15T01:40:32.011Z,74.09
2019-05-15T01:41:43.930Z,73.99
2019-05-15T01:42:58.249Z,73.71
2019-05-15T01:44:08.782Z,74.09
2019-05-15T01:45:21.359Z,73.71
2019-05-15T01:46:33.815Z,74.18
2019-05-15T01:47:47.978Z,74.85
2019-05-15T01:48:58.513Z,74.66
2019-05-15T01:50:11.534Z,74.66
2019-05-15T01:51:23.689Z,74.85
2019-05-15T01:52:36.076Z,74.95
2019-05-15T01:53:48.015Z,74.95
2019-05-15T01:55:00.607Z,75.51
2019-05-15T01:56:12.151Z,75.23
2019-05-15T01:57:23.866Z,75.42
2019-05-15T01:58:38.154Z,75.32
2019-05-15T02:00:00.800Z,75.32
2019-05-15T02:01:11.381Z,75.6
2019-05-15T02:02:24.254Z,75.89
2019-05-15T02:03:35.649Z,76.36
2019-05-15T02:04:48.488Z,76.84
2019-05-15T02:06:00.990Z,75.89
2019-05-15T02:07:12.881Z,75.89
2019-05-15T02:08:24.002Z,76.55
2019-05-15T02:09:38.407Z,76.46
2019-05-15T02:10:49.315Z,76.27
2019-05-15T02:12:01.746Z,76.46
2019-05-15T02:13:13.826Z,76.74
2019-05-15T02:14:23.959Z,76.74
2019-05-15T02:15:36.156Z,77.12
2019-05-15T02:16:48.310Z,77.22
2019-05-15T02:17:58.760Z,77.31
2019-05-15T02:19:11.498Z,77.59
2019-05-15T02:20:22.094Z,77.59
2019-05-15T02:21:34.284Z,77.31
2019-05-15T02:22:45.419Z,77.88
2019-05-15T02:23:55.914Z,77.12
2019-05-15T02:25:08.493Z,77.31
2019-05-15T02:26:18.967Z,78.07
2019-05-15T02:27:31.663Z,78.35
2019-05-15T02:28:44.132Z,77.59
2019-05-15T02:30:23.736Z,78.26
2019-05-15T02:31:45.740Z,78.07
2019-05-15T02:33:01.332Z,77.97
2019-05-15T02:34:19.195Z,78.16
2019-05-15T02:35:32.862Z,77.97
2019-05-15T02:36:44.659Z,77.97
2019-05-15T02:37:59.742Z,79.21
2019-05-15T02:39:14.121Z,79.11
2019-05-15T02:40:29.391Z,79.11
2019-05-15T02:41:43.283Z,78.92
2019-05-15T02:42:59.123Z,78.92
2019-05-15T02:44:13.486Z,78.92
2019-05-15T02:45:25.390Z,79.11
2019-05-15T02:46:44.981Z,78.73
2019-05-15T02:47:59.640Z,78.73
2019-05-15T02:49:11.941Z,79.21
2019-05-15T02:50:24.260Z,79.02
2019-05-15T02:51:39.553Z,78.83
2019-05-15T02:52:52.070Z,79.21
2019-05-15T02:54:05.663Z,79.55
2019-05-15T02:55:19.642Z,79.58
2019-05-15T02:56:32.598Z,80.15
2019-05-15T02:57:44.387Z,80.15
2019-05-15T02:58:59.863Z,79.77
2019-05-15T03:00:32.352Z,80.15
2019-05-15T03:02:02.111Z,79.83
2019-05-15T03:03:15.085Z,79.58
2019-05-15T03:04:31.502Z,79.96
2019-05-15T03:05:44.904Z,80.34
2019-05-15T03:07:00.239Z,79.74
2019-05-15T03:08:12.634Z,80.06
2019-05-15T03:09:24.970Z,80.3
2019-05-15T03:10:40.358Z,80.06
2019-05-15T03:11:52.724Z,80.3
2019-05-15T03:13:03.948Z,80.02
2019-05-15T03:14:17.025Z,80.11
2019-05-15T03:15:32.116Z,80.4
2019-05-15T03:16:45.125Z,79.87
2019-05-15T03:18:00.088Z,80.49
2019-05-15T03:19:12.682Z,80.15
2019-05-15T03:20:24.700Z,80.25
2019-05-15T03:21:38.795Z,79.74
2019-05-15T03:22:52.468Z,80.11
2019-05-15T03:24:04.839Z,80.3
2019-05-15T03:25:19.115Z,80.02
2019-05-15T03:26:32.296Z,80.02
2019-05-15T03:27:44.742Z,80.3
2019-05-15T03:28:58.969Z,80.77
2019-05-15T03:30:21.594Z,80.4
2019-05-15T03:32:40.651Z,80.77
2019-05-15T03:34:46.164Z,80.68
2019-05-15T03:36:22.136Z,80.96
2019-05-15T03:37:41.905Z,80.96
2019-05-15T03:38:54.577Z,81.15
2019-05-15T03:40:06.140Z,81.82
2019-05-15T03:41:19.442Z,80.96
2019-05-15T03:42:32.609Z,81.44
2019-05-15T03:43:44.758Z,81.63
2019-05-15T03:44:59.542Z,81.63
2019-05-15T03:46:12.841Z,81.63
2019-05-15T03:47:25.336Z,81.63
2019-05-15T03:48:40.090Z,81.25
2019-05-15T03:49:51.974Z,82.1
2019-05-15T03:51:05.267Z,82.1
2019-05-15T03:52:18.966Z,82.29
2019-05-15T03:53:32.604Z,82.01
2019-05-15T03:54:45.173Z,82.2
2019-05-15T03:55:58.866Z,82.29
2019-05-15T03:57:12.238Z,82.2
2019-05-15T03:58:31.132Z,82.1
2019-05-15T03:59:43.172Z,82.14
2019-05-15T04:00:54.289Z,82.14
2019-05-15T04:02:31.049Z,82.05
2019-05-15T04:03:44.444Z,82.14
2019-05-15T04:05:03.071Z,81.95
2019-05-15T04:06:19.248Z,81.76
2019-05-15T04:07:32.675Z,81.67
2019-05-15T04:08:44.881Z,81.38
2019-05-15T04:09:58.691Z,81.57
2019-05-15T04:11:12.481Z,81.29
2019-05-15T04:12:28.770Z,81.29
2019-05-15T04:13:42.467Z,81.48
2019-05-15T04:14:55.120Z,81.57
2019-05-15T04:16:10.249Z,81.48
2019-05-15T04:17:22.461Z,81.01
2019-05-15T04:18:34.777Z,81.01
2019-05-15T04:19:49.625Z,81.2
2019-05-15T04:21:02.724Z,80.63
2019-05-15T04:22:13.833Z,81.1
2019-05-15T04:23:29.766Z,80.34
2019-05-15T04:24:42.270Z,80.15
2019-05-15T04:25:54.758Z,80.06
2019-05-15T04:27:12.683Z,80.25
2019-05-15T04:28:25.000Z,79.77
2019-05-15T04:29:39.626Z,80.06
2019-05-15T04:30:52.166Z,79.68
2019-05-15T04:32:10.450Z,79.58
2019-05-15T04:33:22.959Z,79.77
2019-05-15T04:34:34.696Z,79.39
2019-05-15T04:35:49.647Z,79.11
2019-05-15T04:37:01.924Z,79.53
2019-05-15T04:38:14.467Z,78.77
2019-05-15T04:39:29.545Z,78.87
2019-05-15T04:40:42.805Z,78.49
2019-05-15T04:41:55.385Z,78.67
2019-05-15T04:43:09.942Z,78.67
2019-05-15T04:44:22.401Z,78.67
2019-05-15T04:45:39.148Z,78.11
2019-05-15T04:46:52.579Z,77.83
2019-05-15T04:48:04.819Z,77.73
2019-05-15T04:49:19.248Z,77.64
2019-05-15T04:50:32.139Z,77.35
2019-05-15T04:51:45.140Z,77.73
2019-05-15T04:53:03.189Z,77.16
2019-05-15T04:54:15.817Z,76.87
2019-05-15T04:55:28.925Z,76.97
2019-05-15T04:56:42.914Z,76.5
2019-05-15T04:57:54.299Z,76.68
2019-05-15T04:59:09.968Z,76.5
2019-05-15T05:00:22.609Z,76.5
2019-05-15T05:01:34.307Z,76.4
2019-05-15T05:02:49.609Z,75.87
2019-05-15T05:04:01.733Z,75.87
2019-05-15T05:05:14.643Z,75.78
2019-05-15T05:06:29.218Z,75.4
2019-05-15T05:07:42.094Z,74.83
2019-05-15T05:08:54.384Z,74.92
2019-05-15T05:10:09.491Z,74.64
2019-05-15T05:11:28.713Z,74.16
2019-05-15T05:12:44.694Z,74.16
2019-05-15T05:14:01.532Z,74.07
2019-05-15T05:15:13.845Z,74.26
2019-05-15T05:16:29.325Z,73.88
2019-05-15T05:17:42.289Z,73.97
2019-05-15T05:18:54.258Z,73.22
2019-05-15T05:20:08.010Z,73.22
2019-05-15T05:21:18.461Z,72.93
2019-05-15T05:22:30.756Z,72.84
2019-05-15T05:23:42.282Z,73.03
2019-05-15T05:24:53.655Z,73.07
2019-05-15T05:26:08.737Z,72.59
2019-05-15T05:27:23.681Z,72.78
2019-05-15T05:28:34.126Z,72.02
2019-05-15T05:29:47.922Z,72.21
2019-05-15T05:30:58.728Z,71.73
2019-05-15T05:32:11.701Z,71.73
2019-05-15T05:33:41.816Z,71.07
2019-05-15T05:34:53.886Z,71.07
2019-05-15T05:36:03.998Z,70.59
2019-05-15T05:37:15.802Z,70.03
2019-05-15T05:38:28.086Z,70.12
2019-05-15T05:39:39.434Z,69.36
2019-05-15T05:40:52.170Z,69.74
2019-05-15T05:42:03.988Z,69.49
2019-05-15T05:43:15.292Z,69.21
2019-05-15T05:44:26.066Z,69.11
2019-05-15T05:45:38.284Z,69.4
2019-05-15T05:46:48.731Z,69.02
2019-05-15T05:48:01.045Z,68.26
2019-05-15T05:49:11.795Z,67.69
2019-05-15T05:50:23.743Z,67.5
2019-05-15T05:51:38.497Z,67.59
2019-05-15T05:52:51.247Z,66.93
2019-05-15T05:54:03.220Z,66.46
2019-05-15T05:55:13.711Z,66.3
2019-05-15T05:56:25.294Z,66.01
2019-05-15T05:57:38.197Z,66.11
2019-05-15T05:58:49.124Z,65.73
2019-05-15T06:00:01.606Z,65.82
2019-05-15T06:01:14.460Z,65.54
2019-05-15T06:02:27.977Z,65.44
2019-05-15T06:03:58.279Z,65.06
2019-05-15T06:05:10.654Z,65.35
2019-05-15T06:06:21.634Z,64.59
2019-05-15T06:07:35.448Z,64.4
2019-05-15T06:08:47.964Z,63.64
2019-05-15T06:09:58.084Z,64.02
2019-05-15T06:11:09.663Z,64.05
2019-05-15T06:12:21.502Z,63.86
2019-05-15T06:13:33.487Z,63.67
2019-05-15T06:14:48.366Z,63.95
2019-05-15T06:16:01.584Z,63.86
2019-05-15T06:17:13.366Z,63.2
2019-05-15T06:18:24.416Z,63.48
2019-05-15T06:19:35.629Z,63.01
2019-05-15T06:20:46.045Z,62.43
2019-05-15T06:22:03.092Z,63.1
2019-05-15T06:23:14.073Z,62.15
2019-05-15T06:24:40.338Z,61.96
2019-05-15T06:25:51.453Z,61.99
2019-05-15T06:27:02.179Z,62.27
2019-05-15T06:28:13.472Z,62.27
2019-05-15T06:29:28.292Z,61.32
2019-05-15T06:30:40.968Z,61.32
2019-05-15T06:31:51.560Z,61.61
2019-05-15T06:33:13.358Z,60.94
2019-05-15T06:34:24.246Z,60.94
2019-05-15T06:35:35.966Z,60.75
2019-05-15T06:36:48.548Z,60.12
2019-05-15T06:38:01.542Z,60.12
2019-05-15T06:39:13.863Z,58.88
2019-05-15T06:40:25.539Z,58.5
2019-05-15T06:41:38.820Z,58.69
2019-05-15T06:42:51.243Z,58.5
2019-05-15T06:44:02.267Z,58.12
2019-05-15T06:45:13.244Z,57.07
2019-05-15T06:46:24.169Z,57.26
2019-05-15T06:47:39.153Z,57.55
2019-05-15T06:48:51.263Z,56.88
2019-05-15T06:50:03.045Z,56.79
2019-05-15T06:51:13.920Z,56.41
2019-05-15T06:52:28.284Z,55.46
2019-05-15T06:53:40.837Z,54.79
2019-05-15T06:54:51.878Z,54.6
2019-05-15T06:56:02.218Z,55.08
2019-05-15T06:57:13.252Z,54.98
2019-05-15T06:58:28.900Z,54.89
2019-05-15T06:59:41.534Z,54.79
2019-05-15T07:00:53.613Z,54.41
2019-05-15T07:02:04.290Z,54.13
2019-05-15T07:03:29.154Z,53.49
2019-05-15T07:04:41.944Z,53.11
2019-05-15T07:05:54.042Z,52.82
2019-05-15T07:07:12.806Z,52.92
2019-05-15T07:08:23.542Z,52.15
2019-05-15T07:09:37.976Z,50.54
2019-05-15T07:10:48.578Z,50.82
2019-05-15T07:12:01.533Z,51.01
2019-05-15T07:13:13.370Z,50.54
2019-05-15T07:14:25.482Z,50.25
2019-05-15T07:15:38.353Z,51.04
2019-05-15T07:16:51.318Z,50.66
2019-05-15T07:18:01.932Z,50.85
2019-05-15T07:19:14.044Z,50.75
2019-05-15T07:20:28.476Z,50.85
2019-05-15T07:21:41.367Z,49.71
2019-05-15T07:22:53.884Z,49.8
2019-05-15T07:24:08.923Z,49.32
2019-05-15T07:25:21.417Z,48.37
2019-05-15T07:26:32.003Z,48.85
2019-05-15T07:27:44.416Z,48.56
2019-05-15T07:28:55.524Z,48.94
2019-05-15T07:30:12.076Z,48.18
2019-05-15T07:31:24.038Z,47.89
2019-05-15T07:32:34.170Z,47.32
2019-05-15T07:33:49.046Z,46.66
2019-05-15T07:35:00.403Z,46.84
2019-05-15T07:36:11.351Z,46.09
2019-05-15T07:37:24.151Z,45.8
2019-05-15T07:38:38.914Z,45.04
2019-05-15T07:39:51.407Z,45.32
2019-05-15T07:41:09.718Z,45.7
2019-05-15T07:42:21.180Z,45.23
2019-05-15T07:43:32.048Z,45.04
2019-05-15T07:44:43.755Z,44.75
2019-05-15T07:45:58.978Z,44.66
2019-05-15T07:47:11.441Z,44.56
2019-05-15T07:48:24.264Z,44.94
2019-05-15T07:49:38.785Z,45.06
2019-05-15T07:50:52.516Z,44.96
2019-05-15T07:52:04.569Z,44.96
2019-05-15T07:53:16.287Z,44.87
2019-05-15T07:54:28.818Z,45.35
2019-05-15T07:55:41.901Z,44.59
2019-05-15T07:56:55.210Z,44.23
2019-05-15T07:58:08.306Z,43.84
2019-05-15T07:59:21.039Z,43.84
2019-05-15T08:00:33.206Z,43.65
2019-05-15T08:01:44.532Z,43.65
2019-05-15T08:02:58.578Z,43.37
2019-05-15T08:04:30.244Z,43.01
2019-05-15T08:06:03.024Z,43.1
2019-05-15T08:07:13.864Z,42.34
2019-05-15T08:08:28.841Z,42.34
2019-05-15T08:09:41.445Z,41.86
2019-05-15T08:10:53.525Z,41.6
2019-05-15T08:12:28.292Z,41.41
2019-05-15T08:13:40.656Z,41.22
2019-05-15T08:14:53.453Z,41.12
2019-05-15T08:16:05.298Z,41.05
2019-05-15T08:17:18.924Z,40.86
2019-05-15T08:18:34.189Z,41.33
2019-05-15T08:19:44.785Z,41.24
2019-05-15T08:20:58.528Z,41.05
2019-05-15T08:22:08.945Z,40.95
2019-05-15T08:23:21.780Z,40.2
2019-05-15T08:24:33.752Z,41.14
2019-05-15T08:25:44.220Z,38.96
2019-05-15T08:26:58.075Z,38.68
2019-05-15T08:28:11.114Z,37.82
2019-05-15T08:29:24.299Z,38.01
2019-05-15T08:30:38.109Z,38.78
2019-05-15T08:31:50.894Z,37.82
2019-05-15T08:33:02.004Z,37.82
2019-05-15T08:34:19.471Z,37.53
2019-05-15T08:35:31.674Z,37.53
2019-05-15T08:36:50.802Z,36.02
2019-05-15T08:38:01.956Z,35.35
2019-05-15T08:39:18.993Z,35.35
2019-05-15T08:40:31.366Z,35.26
2019-05-15T08:41:48.280Z,35.06
2019-05-15T08:43:03.623Z,34.78
2019-05-15T08:44:18.583Z,34.69
2019-05-15T08:45:30.753Z,34.69
2019-05-15T08:46:44.288Z,34.78
2019-05-15T08:47:55.494Z,34.69
2019-05-15T08:49:06.114Z,34.22
2019-05-15T08:50:18.238Z,34.7
2019-05-15T08:51:30.753Z,34.7
2019-05-15T08:52:43.287Z,34.03
2019-05-15T08:53:53.812Z,34.89
2019-05-15T08:55:08.330Z,34.03
2019-05-15T08:56:19.347Z,33.86
2019-05-15T08:57:31.866Z,33.57
2019-05-15T08:58:43.411Z,33.57
2019-05-15T08:59:53.980Z,33.49
2019-05-15T09:01:06.040Z,32.63
2019-05-15T09:02:18.516Z,31.5
2019-05-15T09:03:30.790Z,31.02
2019-05-15T09:04:43.256Z,30.35
2019-05-15T09:05:53.972Z,30.52
2019-05-15T09:07:08.939Z,30.81
2019-05-15T09:08:22.201Z,31.1
2019-05-15T09:09:34.671Z,31.01
2019-05-15T09:10:45.775Z,31.12
2019-05-15T09:11:58.459Z,30.35
2019-05-15T09:13:12.083Z,30.08
2019-05-15T09:14:24.375Z,29.88
2019-05-15T09:15:39.358Z,29.61
2019-05-15T09:16:51.569Z,28.67
2019-05-15T09:18:19.856Z,29.06
2019-05-15T09:19:31.374Z,28.68
2019-05-15T09:20:41.745Z,29.06
2019-05-15T09:21:54.634Z,28.78
2019-05-15T09:23:08.819Z,29.74
2019-05-15T09:24:22.445Z,28.5
2019-05-15T09:25:33.632Z,28.6
2019-05-15T09:26:44.324Z,28.6
2019-05-15T09:27:57.902Z,28.5
2019-05-15T09:29:09.306Z,28.79
2019-05-15T09:30:21.259Z,28.79
2019-05-15T09:31:33.266Z,27.83
2019-05-15T09:32:43.995Z,28.7
2019-05-15T09:33:58.370Z,28.89
2019-05-15T09:35:10.783Z,28.99
2019-05-15T09:36:23.029Z,29.56
2019-05-15T09:37:38.480Z,29.75
2019-05-15T09:38:51.384Z,29.74
2019-05-15T09:40:03.726Z,30.6
2019-05-15T09:41:17.874Z,30.79
2019-05-15T09:42:28.587Z,30.7
2019-05-15T09:43:44.751Z,30.87
2019-05-15T09:44:58.181Z,30.68
2019-05-15T09:46:12.521Z,31.24
2019-05-15T09:47:23.604Z,31.45
2019-05-15T09:48:35.004Z,31.54
2019-05-15T09:49:51.526Z,31.74
2019-05-15T09:51:01.845Z,31.45
2019-05-15T09:52:14.169Z,31.26
2019-05-15T09:53:32.993Z,30.87
2019-05-15T09:54:44.873Z,31.15
2019-05-15T09:55:56.702Z,31.34
2019-05-15T09:57:10.501Z,32.2
2019-05-15T09:58:22.866Z,32.01
2019-05-15T09:59:35.183Z,31.92
2019-05-15T10:00:51.324Z,31.72
2019-05-15T10:02:01.768Z,32.01
2019-05-15T10:03:14.346Z,31.72
2019-05-15T10:04:28.615Z,31.82
2019-05-15T10:05:41.158Z,32.1
2019-05-15T10:06:53.477Z,32.68
2019-05-15T10:08:03.496Z,32.79
2019-05-15T10:09:14.045Z,32.7
2019-05-15T10:10:28.373Z,32.12
2019-05-15T10:11:40.877Z,31.95
2019-05-15T10:12:52.148Z,32.21
2019-05-15T10:14:04.979Z,31.95
2019-05-15T10:15:18.543Z,31.54
2019-05-15T10:16:28.708Z,31.27
2019-05-15T10:17:38.706Z,31.08
2019-05-15T10:18:53.536Z,31.27
2019-05-15T10:20:05.603Z,31.66
2019-05-15T10:21:18.554Z,31.75
2019-05-15T10:22:35.864Z,31.95
2019-05-15T10:23:48.837Z,31.37
2019-05-15T10:25:02.019Z,31.18
2019-05-15T10:26:19.043Z,31.18
2019-05-15T10:27:31.718Z,31.46
2019-05-15T10:28:42.914Z,31.56
2019-05-15T10:29:54.497Z,31.66
2019-05-15T10:31:09.197Z,31.56
2019-05-15T10:32:21.799Z,30.99
2019-05-15T10:33:34.048Z,31.08
2019-05-15T10:34:46.834Z,31.08
2019-05-15T10:35:59.013Z,31.16
2019-05-15T10:37:11.090Z,31.27
2019-05-15T10:38:23.755Z,31.26
2019-05-15T10:39:38.221Z,31.64
2019-05-15T10:41:10.982Z,31.72
2019-05-15T10:42:28.926Z,31.82
2019-05-15T10:43:55.816Z,32.01
2019-05-15T10:45:08.419Z,32.49
2019-05-15T10:46:18.979Z,32.97
2019-05-15T10:47:31.455Z,32.68
2019-05-15T10:48:44.294Z,32.97
2019-05-15T10:49:57.058Z,32.87
2019-05-15T10:51:11.580Z,32.87
2019-05-15T10:52:22.570Z,32.97
2019-05-15T10:53:34.023Z,32.97
2019-05-15T10:54:46.526Z,32.87
2019-05-15T10:55:56.491Z,32.78
2019-05-15T10:57:11.039Z,33.45
2019-05-15T10:58:24.383Z,33.45
2019-05-15T10:59:35.958Z,33.25
2019-05-15T11:00:48.985Z,33.54
2019-05-15T11:02:04.624Z,33.64
2019-05-15T11:03:16.027Z,33.83
2019-05-15T11:04:28.786Z,33.54
2019-05-15T11:05:49.086Z,33.54
2019-05-15T11:07:00.859Z,33.81
2019-05-15T11:08:12.501Z,33.53
2019-05-15T11:09:24.247Z,33.91
2019-05-15T11:10:38.502Z,33.62
2019-05-15T11:11:54.234Z,33.81
2019-05-15T11:13:05.777Z,33.62
2019-05-15T11:14:18.397Z,33.72
2019-05-15T11:15:31.463Z,33.81
2019-05-15T11:16:48.549Z,34.2
2019-05-15T11:18:00.907Z,34.29
2019-05-15T11:19:11.988Z,34.2
2019-05-15T11:20:21.973Z,34.2
2019-05-15T11:21:31.976Z,33.81
2019-05-15T11:22:45.463Z,33.81
2019-05-15T11:23:58.993Z,34.48
2019-05-15T11:25:12.430Z,34.29
2019-05-15T11:26:22.676Z,33.81
2019-05-15T11:27:41.379Z,33.91
2019-05-15T11:28:53.794Z,33.91
2019-05-15T11:30:07.721Z,33.81
2019-05-15T11:31:17.782Z,33.91
2019-05-15T11:32:31.959Z,33.81
2019-05-15T11:33:44.586Z,33.62
2019-05-15T11:34:58.235Z,33.62
2019-05-15T11:36:11.825Z,33.91
2019-05-15T11:37:23.810Z,34.1
2019-05-15T11:38:37.941Z,33.81
2019-05-15T11:39:49.699Z,33.81
2019-05-15T11:41:04.541Z,34.2
2019-05-15T11:42:16.374Z,34.1
2019-05-15T11:43:29.121Z,34.87
2019-05-15T11:44:41.520Z,34.87
2019-05-15T11:45:58.634Z,34.39
2019-05-15T11:47:08.546Z,34.29
2019-05-15T11:48:20.462Z,34.77
2019-05-15T11:49:32.912Z,34.77
2019-05-15T11:50:43.709Z,34.39
2019-05-15T11:51:53.813Z,34.77
2019-05-15T11:53:11.003Z,35.16
2019-05-15T11:54:22.210Z,35.44
2019-05-15T11:55:33.632Z,34.96
2019-05-15T11:56:48.691Z,35.35
2019-05-15T11:57:59.357Z,35.06
2019-05-15T11:59:12.110Z,35.16
2019-05-15T12:00:30.273Z,35.53
2019-05-15T12:01:41.109Z,35.63
2019-05-15T12:02:51.864Z,35.73
2019-05-15T12:04:03.761Z,35.44
2019-05-15T12:05:38.487Z,35.83
2019-05-15T12:07:02.557Z,35.65
2019-05-15T12:08:15.090Z,34.98
2019-05-15T12:09:28.187Z,35.17
2019-05-15T12:10:41.237Z,34.98
2019-05-15T12:11:51.204Z,34.52
2019-05-15T12:13:01.188Z,34.33
2019-05-15T12:14:12.706Z,35
2019-05-15T12:15:24.817Z,34.14
2019-05-15T12:16:39.811Z,34.14
2019-05-15T12:18:17.560Z,34.14
2019-05-15T12:19:29.106Z,34.14
2019-05-15T12:20:41.729Z,34.33
2019-05-15T12:21:53.457Z,34.9
2019-05-15T12:25:05.043Z,34.04
2019-05-15T12:26:17.578Z,33.75
2019-05-15T12:27:28.246Z,34.04
2019-05-15T12:28:40.496Z,34.23
2019-05-15T12:31:52.256Z,34.14
2019-05-15T12:33:28.904Z,33.84
2019-05-15T12:34:41.539Z,33.75
2019-05-15T12:35:54.658Z,33.65
2019-05-15T12:37:04.395Z,33.75
2019-05-15T12:38:18.531Z,33.84
2019-05-15T12:39:32.980Z,33.56
2019-05-15T13:00:48.898Z,33.94
2019-05-15T13:02:01.104Z,34.23
2019-05-15T13:03:13.336Z,35.17
2019-05-15T13:04:23.560Z,35.27
2019-05-15T13:05:36.681Z,35.46
2019-05-15T13:07:16.824Z,35.65
2019-05-15T13:08:31.720Z,36.13
2019-05-15T13:09:43.866Z,36.32
2019-05-15T13:10:53.986Z,36.61
2019-05-15T13:12:03.702Z,36.71
2019-05-15T13:13:16.073Z,36.61
2019-05-15T13:14:28.316Z,37.28
2019-05-15T13:15:40.752Z,38.53
2019-05-15T13:16:53.516Z,42.05
2019-05-15T13:18:04.539Z,43.3
2019-05-15T13:19:23.201Z,42.91
2019-05-15T13:20:38.152Z,42.82
2019-05-15T13:21:51.204Z,42.63
2019-05-15T13:23:03.231Z,43.97
2019-05-15T13:24:13.194Z,46.17
2019-05-15T13:25:27.848Z,46.36
2019-05-15T13:26:38.427Z,46.62
2019-05-15T13:27:51.259Z,48.85
2019-05-15T13:29:03.238Z,53.64
2019-05-15T13:30:14.281Z,56.04
2019-05-15T13:31:28.206Z,54.89
2019-05-15T13:32:40.960Z,54.32
2019-05-15T13:33:52.711Z,52.97
2019-05-15T13:35:04.076Z,52.78
2019-05-15T13:36:19.678Z,53.07
2019-05-15T13:37:33.407Z,53.26
2019-05-15T13:38:48.210Z,51.06
2019-05-15T13:40:01.186Z,54.22
2019-05-15T13:41:11.894Z,56.99
2019-05-15T13:42:24.313Z,54.22
2019-05-15T13:43:35.444Z,54.03
2019-05-15T13:44:46.220Z,55.75
2019-05-15T13:45:57.931Z,58.91
2019-05-15T13:47:08.559Z,57.38
2019-05-15T13:48:22.488Z,56.52
2019-05-15T13:49:34.812Z,54.86
2019-05-15T13:50:48.227Z,52.09
2019-05-15T13:51:59.298Z,52.85
2019-05-15T13:53:13.453Z,52.85
2019-05-15T13:54:23.707Z,53.14
2019-05-15T13:55:42.221Z,50.93
2019-05-15T13:56:53.412Z,50.07
2019-05-15T13:58:05.597Z,50.36
2019-05-15T13:59:16.416Z,51.03
2019-05-15T14:00:28.815Z,50.62
2019-05-15T14:01:42.000Z,51.1
2019-05-15T14:02:53.729Z,50.15
2019-05-15T14:04:03.738Z,49.29
2019-05-15T14:05:16.117Z,48.33
2019-05-15T14:06:28.416Z,48.61
2019-05-15T14:07:53.541Z,47.82
2019-05-15T14:09:08.559Z,49.26
2019-05-15T14:10:20.573Z,50.12
2019-05-15T14:11:33.758Z,49.64
2019-05-15T14:12:47.813Z,49.84
2019-05-15T14:13:59.450Z,50.21
2019-05-15T14:15:11.542Z,49.64
2019-05-15T14:16:21.811Z,48.49
2019-05-15T14:17:33.600Z,48.59
2019-05-15T14:18:45.338Z,48.59
2019-05-15T14:19:55.404Z,47.92
2019-05-15T14:21:05.666Z,48.3
2019-05-15T14:22:16.679Z,48.68
2019-05-15T14:23:29.188Z,48.78
2019-05-15T14:24:41.351Z,48.49
2019-05-15T14:25:54.089Z,49.57
2019-05-15T14:27:28.892Z,48.33
2019-05-15T14:28:42.567Z,49.29
2019-05-15T14:29:53.413Z,49.66
2019-05-15T14:31:05.507Z,49.29
2019-05-15T14:32:26.979Z,49.57
2019-05-15T14:33:48.585Z,49.57
2019-05-15T14:35:01.040Z,49
2019-05-15T14:36:11.772Z,49.11
2019-05-15T14:37:23.556Z,48.64
2019-05-15T14:38:37.841Z,49.21
2019-05-15T14:39:52.268Z,48.83
2019-05-15T14:41:03.273Z,49.11
2019-05-15T14:42:14.145Z,47.58
2019-05-15T14:43:29.135Z,46.82
2019-05-15T14:44:41.764Z,46.62
2019-05-15T14:45:53.847Z,44.81
2019-05-15T14:47:08.636Z,44.62
2019-05-15T14:48:18.990Z,44.81
2019-05-15T14:49:43.540Z,44.81
2019-05-15T14:50:58.336Z,44.81
2019-05-15T14:52:11.774Z,44.81
2019-05-15T14:53:23.242Z,44.52
2019-05-15T14:54:34.570Z,44.71
2019-05-15T14:55:49.170Z,44.81
2019-05-15T14:57:03.147Z,44.13
2019-05-15T14:58:13.739Z,44.04
2019-05-15T14:59:27.496Z,44.13
2019-05-15T15:00:41.212Z,44.62
2019-05-15T15:01:55.558Z,44.23
2019-05-15T15:03:05.889Z,44.71
2019-05-15T15:04:18.421Z,44.9
2019-05-15T15:05:28.574Z,44.88
2019-05-15T15:06:38.555Z,45.84
2019-05-15T15:07:51.376Z,45.86
2019-05-15T15:09:21.361Z,45.96
2019-05-15T15:10:33.496Z,45.38
2019-05-15T15:11:48.208Z,45.38
2019-05-15T15:12:58.492Z,45.29
2019-05-15T15:14:10.964Z,45.96
2019-05-15T15:15:22.954Z,45.57
2019-05-15T15:16:33.782Z,45.86
2019-05-15T15:17:48.640Z,45.96
2019-05-15T15:19:01.323Z,45.74
2019-05-15T15:20:12.041Z,45.65
2019-05-15T15:21:25.348Z,45.65
2019-05-15T15:22:39.362Z,46.12
2019-05-15T15:23:51.473Z,45.76
2019-05-15T15:25:03.739Z,45.76
2019-05-15T15:26:14.906Z,46.25
2019-05-15T15:27:28.051Z,46.51
2019-05-15T15:28:40.168Z,46.62
2019-05-15T15:29:51.906Z,46.61
2019-05-15T15:31:03.658Z,46.8
2019-05-15T15:32:13.646Z,46.7
2019-05-15T15:33:23.127Z,46.8
2019-05-15T15:34:34.210Z,46.51
2019-05-15T15:35:48.555Z,46.89
2019-05-15T15:37:00.884Z,47.18
2019-05-15T15:38:15.938Z,47.37
2019-05-15T15:39:50.525Z,47.94
2019-05-15T15:41:02.913Z,47.66
2019-05-15T15:42:13.869Z,47.85
2019-05-15T15:43:23.887Z,47.94
2019-05-15T15:44:37.987Z,47.75
2019-05-15T15:45:48.459Z,47.85
2019-05-15T15:47:02.001Z,46.98
2019-05-15T15:48:13.713Z,46.8
2019-05-15T15:49:24.658Z,47.27
2019-05-15T15:50:35.422Z,47.27
2019-05-15T15:51:48.589Z,46.98
2019-05-15T15:53:01.862Z,47.27
2019-05-15T15:54:14.002Z,47.66
2019-05-15T15:55:28.842Z,48.42
2019-05-15T15:56:42.007Z,47.66
2019-05-15T15:57:53.958Z,47.75
2019-05-15T15:59:04.601Z,47.75
2019-05-15T16:00:18.292Z,47.63
2019-05-15T16:01:33.356Z,47.82
2019-05-15T16:02:48.346Z,48.04
2019-05-15T16:03:58.687Z,48.3
2019-05-15T16:05:11.435Z,47.73
2019-05-15T16:06:23.811Z,48.11
2019-05-15T16:07:34.706Z,48.21
2019-05-15T16:08:59.526Z,48.11
2019-05-15T16:10:11.510Z,48.11
2019-05-15T16:11:21.978Z,47.82
2019-05-15T16:12:33.230Z,47.25
2019-05-15T16:13:46.276Z,47.16
2019-05-15T16:14:57.898Z,47.34